createdAt,value
2018-06-02T00:00:39.868Z,0.00
2018-06-02T00:01:40.034Z,0.00
2018-06-02T00:02:40.205Z,0.00
2018-06-02T00:03:40.369Z,0.00
2018-06-02T00:04:40.553Z,0.00
2018-06-02T00:05:40.739Z,0.00
2018-06-02T00:06:40.910Z,0.00
2018-06-02T00:07:41.097Z,0.00
2018-06-02T00:08:41.276Z,0.00
2018-06-02T00:09:41.442Z,0.00
2018-06-02T00:10:41.624Z,0.00
2018-06-02T00:11:41.790Z,0.00
2018-06-02T00:12:41.974Z,0.00
2018-06-02T00:13:42.138Z,0.00
2018-06-02T00:14:42.318Z,0.00
2018-06-02T00:15:42.506Z,0.00
2018-06-02T00:16:42.678Z,0.00
2018-06-02T00:17:42.843Z,0.00
2018-06-02T00:18:43.012Z,0.00
2018-06-02T00:19:43.168Z,0.00
2018-06-02T00:20:43.369Z,0.00
2018-06-02T00:21:43.528Z,0.00
2018-06-02T00:22:43.684Z,0.00
2018-06-02T00:23:43.863Z,0.00
2018-06-02T00:24:44.038Z,0.00
2018-06-02T00:25:44.258Z,0.00
2018-06-02T00:26:44.387Z,0.00
2018-06-02T00:27:44.562Z,0.00
2018-06-02T00:28:44.732Z,0.00
2018-06-02T00:29:44.900Z,0.00
2018-06-02T00:30:45.081Z,0.00
2018-06-02T00:31:45.261Z,0.00
2018-06-02T00:32:45.404Z,0.00
2018-06-02T00:33:45.587Z,0.00
2018-06-02T00:34:45.740Z,0.00
2018-06-02T00:35:45.942Z,0.00
2018-06-02T00:36:46.101Z,0.00
2018-06-02T00:37:46.283Z,0.00
2018-06-02T00:38:46.449Z,0.00
2018-06-02T00:39:46.634Z,0.00
2018-06-02T00:40:46.799Z,0.00
2018-06-02T00:41:46.956Z,0.00
2018-06-02T00:42:47.136Z,0.00
2018-06-02T00:43:47.313Z,0.00
2018-06-02T00:44:47.471Z,0.00
2018-06-02T00:45:47.635Z,0.00
2018-06-02T00:46:47.802Z,0.00
2018-06-02T00:47:48.046Z,0.00
2018-06-02T00:48:48.189Z,0.00
2018-06-02T00:49:48.365Z,0.00
2018-06-02T00:50:48.539Z,0.00
2018-06-02T00:51:48.697Z,0.00
2018-06-02T00:52:48.895Z,0.00
2018-06-02T00:53:49.074Z,0.00
2018-06-02T00:54:49.231Z,0.00
2018-06-02T00:55:49.410Z,0.00
2018-06-02T00:56:49.571Z,0.00
2018-06-02T00:57:49.747Z,0.00
2018-06-02T00:58:49.901Z,0.00
2018-06-02T00:59:50.069Z,0.00
2018-06-02T01:00:50.270Z,0.00
2018-06-02T01:01:50.412Z,0.00
2018-06-02T01:02:50.600Z,0.00
2018-06-02T01:03:50.769Z,0.00
2018-06-02T01:04:50.930Z,0.00
2018-06-02T01:05:51.341Z,0.00
2018-06-02T01:06:51.289Z,0.00
2018-06-02T01:07:51.465Z,0.00
2018-06-02T01:08:51.639Z,0.00
2018-06-02T01:09:51.823Z,0.00
2018-06-02T01:10:52.007Z,0.00
2018-06-02T01:11:52.188Z,0.00
2018-06-02T01:12:52.380Z,0.00
2018-06-02T01:13:52.522Z,0.00
2018-06-02T01:14:52.712Z,0.00
2018-06-02T01:15:52.861Z,0.00
2018-06-02T01:16:53.054Z,0.00
2018-06-02T01:17:53.234Z,0.00
2018-06-02T01:18:53.402Z,0.00
2018-06-02T01:19:53.568Z,0.00
2018-06-02T01:20:53.757Z,0.00
2018-06-02T01:21:53.949Z,0.00
2018-06-02T01:22:54.098Z,0.00
2018-06-02T01:23:54.266Z,0.00
2018-06-02T01:24:54.443Z,0.00
2018-06-02T01:25:54.647Z,0.00
2018-06-02T01:26:54.825Z,0.00
2018-06-02T01:27:54.983Z,0.00
2018-06-02T01:28:55.187Z,0.00
2018-06-02T01:29:55.323Z,0.00
2018-06-02T01:30:55.500Z,0.00
2018-06-02T01:31:55.648Z,0.00
2018-06-02T01:32:55.837Z,0.00
2018-06-02T01:33:55.989Z,0.00
2018-06-02T01:34:56.173Z,0.00
2018-06-02T01:35:56.364Z,0.00
2018-06-02T01:36:56.520Z,0.00
2018-06-02T01:37:56.709Z,0.00
2018-06-02T01:38:56.893Z,0.00
2018-06-02T01:39:57.101Z,0.00
2018-06-02T01:40:57.268Z,0.00
2018-06-02T01:41:57.430Z,0.00
2018-06-02T01:42:57.634Z,0.00
2018-06-02T01:43:57.778Z,0.00
2018-06-02T01:44:57.937Z,0.00
2018-06-02T01:45:58.153Z,0.00
2018-06-02T01:46:58.313Z,0.00
2018-06-02T01:47:58.507Z,0.00
2018-06-02T01:48:58.683Z,0.00
2018-06-02T01:49:58.874Z,0.00
2018-06-02T01:50:59.051Z,0.00
2018-06-02T01:51:59.211Z,0.00
2018-06-02T01:52:59.386Z,0.00
2018-06-02T01:53:59.577Z,0.00
2018-06-02T01:54:59.754Z,0.00
2018-06-02T01:55:59.939Z,0.00
2018-06-02T01:57:00.121Z,0.00
2018-06-02T01:58:00.309Z,0.00
2018-06-02T01:59:00.480Z,0.00
2018-06-02T02:00:00.661Z,0.00
2018-06-02T02:01:00.846Z,0.00
2018-06-02T02:02:01.023Z,0.00
2018-06-02T02:03:01.205Z,0.00
2018-06-02T02:04:01.391Z,0.00
2018-06-02T02:05:01.569Z,0.00
2018-06-02T02:06:01.754Z,0.00
2018-06-02T02:07:01.929Z,0.00
2018-06-02T02:08:02.114Z,0.00
2018-06-02T02:09:02.308Z,0.00
2018-06-02T02:10:02.506Z,0.00
2018-06-02T02:11:02.656Z,0.00
2018-06-02T02:12:02.840Z,0.00
2018-06-02T02:13:03.033Z,0.00
2018-06-02T02:14:03.204Z,0.00
2018-06-02T02:15:03.398Z,0.00
2018-06-02T02:16:03.596Z,0.00
2018-06-02T02:17:03.745Z,0.00
2018-06-02T02:18:03.936Z,0.00
2018-06-02T02:19:04.104Z,0.00
2018-06-02T02:20:04.524Z,0.00
2018-06-02T02:21:04.464Z,0.00
2018-06-02T02:22:04.657Z,0.00
2018-06-02T02:23:04.839Z,0.00
2018-06-02T02:24:05.021Z,0.00
2018-06-02T02:25:05.188Z,0.00
2018-06-02T02:26:05.365Z,0.00
2018-06-02T02:27:05.546Z,0.00
2018-06-02T02:28:05.712Z,0.00
2018-06-02T02:29:05.901Z,0.00
2018-06-02T02:30:06.075Z,0.00
2018-06-02T02:31:06.264Z,0.00
2018-06-02T02:32:06.433Z,0.00
2018-06-02T02:33:06.606Z,0.00
2018-06-02T02:34:06.791Z,0.00
2018-06-02T02:35:06.972Z,0.00
2018-06-02T02:36:07.165Z,0.00
2018-06-02T02:37:07.339Z,0.00
2018-06-02T02:38:07.520Z,0.00
2018-06-02T02:39:07.717Z,0.00
2018-06-02T02:40:07.893Z,0.00
2018-06-02T02:41:08.051Z,0.00
2018-06-02T02:42:08.232Z,0.00
2018-06-02T02:43:08.415Z,0.00
2018-06-02T02:44:08.600Z,0.00
2018-06-02T02:45:08.776Z,0.00
2018-06-02T02:46:08.953Z,0.00
2018-06-02T02:47:09.371Z,4.00
2018-06-02T02:48:09.309Z,4.00
2018-06-02T02:49:09.482Z,4.00
2018-06-02T02:50:09.672Z,0.00
2018-06-02T02:51:09.851Z,0.00
2018-06-02T02:52:10.032Z,0.00
2018-06-02T02:53:10.213Z,0.00
2018-06-02T02:54:10.395Z,4.00
2018-06-02T02:55:10.579Z,4.00
2018-06-02T02:56:10.759Z,4.00
2018-06-02T02:57:10.943Z,4.00
2018-06-02T02:58:11.118Z,4.00
2018-06-02T02:59:11.301Z,4.00
2018-06-02T03:00:11.487Z,8.00
2018-06-02T03:01:11.645Z,8.00
2018-06-02T03:02:11.838Z,4.00
2018-06-02T03:03:12.003Z,4.00
2018-06-02T03:04:12.186Z,8.00
2018-06-02T03:05:12.362Z,8.00
2018-06-02T03:06:12.546Z,8.00
2018-06-02T03:07:12.723Z,8.00
2018-06-02T03:08:12.907Z,4.00
2018-06-02T03:09:13.091Z,8.00
2018-06-02T03:10:13.273Z,8.00
2018-06-02T03:11:13.459Z,8.00
2018-06-02T03:12:13.641Z,12.00
2018-06-02T03:13:13.835Z,8.00
2018-06-02T03:14:14.008Z,12.00
2018-06-02T03:15:14.188Z,12.00
2018-06-02T03:16:14.370Z,12.00
2018-06-02T03:17:14.557Z,12.00
2018-06-02T03:18:14.739Z,16.00
2018-06-02T03:19:14.918Z,12.00
2018-06-02T03:20:15.100Z,12.00
2018-06-02T03:21:15.285Z,12.00
2018-06-02T03:22:15.465Z,16.00
2018-06-02T03:23:15.648Z,20.00
2018-06-02T03:24:15.826Z,20.00
2018-06-02T03:25:16.008Z,16.00
2018-06-02T03:26:16.194Z,16.00
2018-06-02T03:27:16.374Z,20.00
2018-06-02T03:28:16.553Z,20.00
2018-06-02T03:29:16.741Z,24.00
2018-06-02T03:30:16.923Z,24.00
2018-06-02T03:31:17.348Z,24.00
2018-06-02T03:32:17.281Z,24.00
2018-06-02T03:33:17.473Z,24.00
2018-06-02T03:34:17.648Z,24.00
2018-06-02T03:35:17.826Z,24.00
2018-06-02T03:36:18.017Z,24.00
2018-06-02T03:37:18.193Z,28.00
2018-06-02T03:38:18.613Z,28.00
2018-06-02T03:39:18.559Z,32.00
2018-06-02T03:40:18.741Z,28.00
2018-06-02T03:41:18.927Z,32.00
2018-06-02T03:42:19.111Z,32.00
2018-06-02T03:43:19.300Z,36.00
2018-06-02T03:44:19.473Z,36.00
2018-06-02T03:45:19.652Z,32.00
2018-06-02T03:46:19.833Z,28.00
2018-06-02T03:47:20.014Z,28.00
2018-06-02T03:48:20.194Z,28.00
2018-06-02T03:49:20.384Z,28.00
2018-06-02T03:50:20.556Z,32.00
2018-06-02T03:51:20.735Z,28.00
2018-06-02T03:52:20.931Z,28.00
2018-06-02T03:53:21.119Z,28.00
2018-06-02T03:54:21.302Z,36.00
2018-06-02T03:55:21.481Z,36.00
2018-06-02T03:56:21.668Z,40.00
2018-06-02T03:57:21.849Z,44.00
2018-06-02T03:58:22.030Z,48.00
2018-06-02T03:59:22.212Z,52.00
2018-06-02T04:00:22.398Z,52.00
2018-06-02T04:01:22.576Z,52.00
2018-06-02T04:02:23.016Z,44.00
2018-06-02T04:03:22.920Z,48.00
2018-06-02T04:04:23.097Z,48.00
2018-06-02T04:05:23.278Z,52.00
2018-06-02T04:06:23.461Z,52.00
2018-06-02T04:07:23.647Z,64.00
2018-06-02T04:08:23.826Z,68.00
2018-06-02T04:09:24.006Z,80.00
2018-06-02T04:10:24.186Z,84.00
2018-06-02T04:11:24.367Z,88.00
2018-06-02T04:12:24.539Z,92.00
2018-06-02T04:13:24.715Z,108.00
2018-06-02T04:14:24.901Z,116.00
2018-06-02T04:15:25.081Z,120.00
2018-06-02T04:16:25.257Z,124.00
2018-06-02T04:17:25.439Z,128.00
2018-06-02T04:18:25.625Z,128.00
2018-06-02T04:19:25.802Z,128.00
2018-06-02T04:20:25.985Z,128.00
2018-06-02T04:21:26.156Z,120.00
2018-06-02T04:22:26.335Z,116.00
2018-06-02T04:23:26.523Z,112.00
2018-06-02T04:24:26.700Z,112.00
2018-06-02T04:25:26.886Z,116.00
2018-06-02T04:26:27.080Z,124.00
2018-06-02T04:27:27.245Z,124.00
2018-06-02T04:28:27.432Z,128.00
2018-06-02T04:29:27.852Z,144.00
2018-06-02T04:30:27.802Z,160.00
2018-06-02T04:31:27.974Z,168.00
2018-06-02T04:32:28.158Z,172.00
2018-06-02T04:33:28.337Z,172.00
2018-06-02T04:34:28.526Z,180.00
2018-06-02T04:35:28.707Z,180.00
2018-06-02T04:36:28.889Z,184.00
2018-06-02T04:37:29.072Z,184.00
2018-06-02T04:38:29.251Z,184.00
2018-06-02T04:39:29.434Z,188.00
2018-06-02T04:40:29.619Z,188.00
2018-06-02T04:41:29.815Z,192.00
2018-06-02T04:42:29.982Z,180.00
2018-06-02T04:43:30.166Z,176.00
2018-06-02T04:44:30.347Z,164.00
2018-06-02T04:45:30.533Z,156.00
2018-06-02T04:46:30.724Z,156.00
2018-06-02T04:47:30.900Z,160.00
2018-06-02T04:48:31.088Z,164.00
2018-06-02T04:49:31.273Z,176.00
2018-06-02T04:50:31.454Z,188.00
2018-06-02T04:51:31.636Z,208.00
2018-06-02T04:52:31.814Z,228.00
2018-06-02T04:53:31.993Z,252.00
2018-06-02T04:54:32.175Z,264.00
2018-06-02T04:55:32.368Z,280.00
2018-06-02T04:56:32.544Z,296.00
2018-06-02T04:57:32.728Z,308.00
2018-06-02T04:58:32.908Z,320.00
2018-06-02T04:59:33.090Z,324.00
2018-06-02T05:00:33.302Z,332.00
2018-06-02T05:01:33.491Z,344.00
2018-06-02T05:02:33.674Z,352.00
2018-06-02T05:03:33.843Z,372.00
2018-06-02T05:04:34.033Z,388.00
2018-06-02T05:05:34.217Z,396.00
2018-06-02T05:06:34.397Z,416.00
2018-06-02T05:07:34.572Z,424.00
2018-06-02T05:08:34.758Z,432.00
2018-06-02T05:09:34.940Z,444.00
2018-06-02T05:10:35.365Z,444.00
2018-06-02T05:11:35.307Z,428.00
2018-06-02T05:12:35.487Z,416.00
2018-06-02T05:13:35.661Z,420.00
2018-06-02T05:14:35.840Z,392.00
2018-06-02T05:15:36.026Z,380.00
2018-06-02T05:16:36.211Z,360.00
2018-06-02T05:17:36.396Z,352.00
2018-06-02T05:18:36.583Z,348.00
2018-06-02T05:19:36.766Z,344.00
2018-06-02T05:21:37.123Z,356.00
2018-06-02T05:22:37.304Z,356.00
2018-06-02T05:23:37.491Z,360.00
2018-06-02T05:24:37.673Z,380.00
2018-06-02T05:25:37.863Z,400.00
2018-06-02T05:26:38.046Z,424.00
2018-06-02T05:27:38.217Z,444.00
2018-06-02T05:28:38.393Z,460.00
2018-06-02T05:29:38.583Z,464.00
2018-06-02T05:30:38.771Z,464.00
2018-06-02T05:31:38.955Z,472.00
2018-06-02T05:32:39.131Z,488.00
2018-06-02T05:33:39.329Z,488.00
2018-06-02T05:34:39.501Z,492.00
2018-06-02T05:35:39.682Z,480.00
2018-06-02T05:36:39.867Z,460.00
2018-06-02T05:37:40.046Z,468.00
2018-06-02T05:38:40.232Z,472.00
2018-06-02T05:39:40.404Z,512.00
2018-06-02T05:40:40.585Z,552.00
2018-06-02T05:41:40.766Z,576.00
2018-06-02T05:42:40.961Z,600.00
2018-06-02T05:43:41.147Z,600.00
2018-06-02T05:44:41.325Z,580.00
2018-06-02T05:45:41.504Z,584.00
2018-06-02T05:46:41.682Z,588.00
2018-06-02T05:47:42.106Z,600.00
2018-06-02T05:48:42.051Z,584.00
2018-06-02T05:49:42.226Z,548.00
2018-06-02T05:50:42.397Z,528.00
2018-06-02T05:51:42.820Z,528.00
2018-06-02T05:52:42.756Z,488.00
2018-06-02T05:53:42.946Z,460.00
2018-06-02T05:54:43.160Z,436.00
2018-06-02T05:55:43.305Z,436.00
2018-06-02T05:56:43.487Z,452.00
2018-06-02T05:57:43.672Z,472.00
2018-06-02T05:58:43.861Z,460.00
2018-06-02T05:59:45.168Z,476.00
2018-06-02T06:00:44.230Z,476.00
2018-06-02T06:01:44.424Z,452.00
2018-06-02T06:02:44.597Z,468.00
2018-06-02T06:03:44.792Z,460.00
2018-06-02T06:04:44.958Z,472.00
2018-06-02T06:05:45.131Z,472.00
2018-06-02T06:06:45.306Z,452.00
2018-06-02T06:07:45.473Z,436.00
2018-06-02T06:08:45.660Z,424.00
2018-06-02T06:09:45.840Z,420.00
2018-06-02T06:10:46.028Z,396.00
2018-06-02T06:11:46.204Z,376.00
2018-06-02T06:12:46.387Z,376.00
2018-06-02T06:13:46.571Z,376.00
2018-06-02T06:14:46.751Z,392.00
2018-06-02T06:15:46.933Z,408.00
2018-06-02T06:16:47.121Z,420.00
2018-06-02T06:17:48.169Z,412.00
2018-06-02T06:18:47.465Z,416.00
2018-06-02T06:19:47.660Z,428.00
2018-06-02T06:20:47.837Z,444.00
2018-06-02T06:21:48.019Z,464.00
2018-06-02T06:22:48.216Z,472.00
2018-06-02T06:23:48.405Z,472.00
2018-06-02T06:24:48.585Z,468.00
2018-06-02T06:25:49.009Z,464.00
2018-06-02T06:26:48.981Z,460.00
2018-06-02T06:27:49.144Z,472.00
2018-06-02T06:28:49.333Z,480.00
2018-06-02T06:29:49.502Z,488.00
2018-06-02T06:30:49.680Z,512.00
2018-06-02T06:31:49.862Z,536.00
2018-06-02T06:32:50.117Z,572.00
2018-06-02T06:33:50.220Z,588.00
2018-06-02T06:34:50.410Z,600.00
2018-06-02T06:35:50.592Z,632.00
2018-06-02T06:36:50.778Z,692.00
2018-06-02T06:37:50.964Z,688.00
2018-06-02T06:38:51.142Z,676.00
2018-06-02T06:39:51.315Z,684.00
2018-06-02T06:40:51.507Z,752.00
2018-06-02T06:41:51.679Z,816.00
2018-06-02T06:42:51.859Z,880.00
2018-06-02T06:43:52.040Z,912.00
2018-06-02T06:44:52.224Z,956.00
2018-06-02T06:45:52.417Z,996.00
2018-06-02T06:46:52.589Z,1020.00
2018-06-02T06:47:52.780Z,1052.00
2018-06-02T06:48:52.955Z,1084.00
2018-06-02T06:49:53.381Z,1132.00
2018-06-02T06:50:53.322Z,1188.00
2018-06-02T06:51:53.523Z,1244.00
2018-06-02T06:52:53.698Z,1336.00
2018-06-02T06:53:53.878Z,1404.00
2018-06-02T06:54:54.071Z,1312.00
2018-06-02T06:55:54.249Z,1316.00
2018-06-02T06:56:54.484Z,1240.00
2018-06-02T06:57:54.593Z,1196.00
2018-06-02T06:58:54.791Z,1212.00
2018-06-02T07:00:55.150Z,1300.00
2018-06-02T07:01:55.301Z,1400.00
2018-06-02T07:02:55.470Z,1492.00
2018-06-02T07:03:55.654Z,1552.00
2018-06-02T07:04:55.832Z,1572.00
2018-06-02T07:05:56.017Z,1644.00
2018-06-02T07:06:56.203Z,1624.00
2018-06-02T07:07:56.384Z,1632.00
2018-06-02T07:08:56.622Z,1664.00
2018-06-02T07:09:56.752Z,1768.00
2018-06-02T07:10:56.932Z,1812.00
2018-06-02T07:11:57.157Z,1816.00
2018-06-02T07:12:57.293Z,1760.00
2018-06-02T07:13:57.477Z,1680.00
2018-06-02T07:14:57.667Z,1648.00
2018-06-02T07:15:57.844Z,1620.00
2018-06-02T07:16:58.034Z,1576.00
2018-06-02T07:17:58.220Z,1620.00
2018-06-02T07:18:58.408Z,1632.00
2018-06-02T07:19:58.586Z,1648.00
2018-06-02T07:20:58.764Z,1692.00
2018-06-02T07:21:58.948Z,1840.00
2018-06-02T07:22:59.131Z,1928.00
2018-06-02T07:23:59.314Z,1972.00
2018-06-02T07:24:59.500Z,1944.00
2018-06-02T07:25:59.680Z,1956.00
2018-06-02T07:26:59.867Z,1908.00
2018-06-02T07:28:00.052Z,1840.00
2018-06-02T07:29:00.235Z,1824.00
2018-06-02T07:30:00.437Z,1876.00
2018-06-02T07:31:00.592Z,1840.00
2018-06-02T07:32:00.781Z,1844.00
2018-06-02T07:33:00.955Z,1848.00
2018-06-02T07:34:01.379Z,1872.00
2018-06-02T07:35:01.319Z,1932.00
2018-06-02T07:36:01.529Z,2012.00
2018-06-02T07:37:01.692Z,2116.00
2018-06-02T07:38:01.873Z,2152.00
2018-06-02T07:39:02.065Z,2256.00
2018-06-02T07:40:02.244Z,2396.00
2018-06-02T07:41:02.433Z,2132.00
2018-06-02T07:42:02.613Z,2024.00
2018-06-02T07:43:02.791Z,1968.00
2018-06-02T07:44:02.978Z,1948.00
2018-06-02T07:45:03.158Z,1892.00
2018-06-02T07:46:03.345Z,1876.00
2018-06-02T07:47:03.528Z,1860.00
2018-06-02T07:48:03.706Z,1936.00
2018-06-02T07:49:03.891Z,2108.00
2018-06-02T07:50:04.074Z,2360.00
2018-06-02T07:51:04.250Z,2676.00
2018-06-02T07:52:04.441Z,3044.00
2018-06-02T07:53:04.626Z,3380.00
2018-06-02T07:54:04.830Z,3608.00
2018-06-02T07:55:05.000Z,3756.00
2018-06-02T07:56:05.196Z,3892.00
2018-06-02T07:57:05.336Z,4076.00
2018-06-02T07:58:05.521Z,4404.00
2018-06-02T07:59:05.708Z,4792.00
2018-06-02T08:00:05.882Z,5464.00
2018-06-02T08:01:06.060Z,6036.00
2018-06-02T08:02:06.247Z,6404.00
2018-06-02T08:03:06.437Z,6188.00
2018-06-02T08:04:06.614Z,5976.00
2018-06-02T08:05:07.046Z,6052.00
2018-06-02T08:06:06.994Z,6360.00
2018-06-02T08:07:07.167Z,6856.00
2018-06-02T08:08:07.338Z,7128.00
2018-06-02T08:09:07.521Z,7188.00
2018-06-02T08:10:07.692Z,7784.00
2018-06-02T08:11:07.868Z,8408.00
2018-06-02T08:12:08.047Z,7812.00
2018-06-02T08:13:08.214Z,7372.00
2018-06-02T08:14:08.394Z,6972.00
2018-06-02T08:15:08.819Z,6912.00
2018-06-02T08:16:08.732Z,7236.00
2018-06-02T08:17:08.911Z,8184.00
2018-06-02T08:18:09.089Z,8848.00
2018-06-02T08:19:09.252Z,9060.00
2018-06-02T08:20:09.426Z,9096.00
2018-06-02T08:21:09.597Z,8964.00
2018-06-02T08:22:09.776Z,8964.00
2018-06-02T08:23:09.963Z,9020.00
2018-06-02T08:24:10.124Z,8884.00
2018-06-02T08:25:10.300Z,8580.00
2018-06-02T08:26:10.462Z,8000.00
2018-06-02T08:27:10.627Z,7252.00
2018-06-02T08:29:10.978Z,5760.00
2018-06-02T08:30:11.176Z,5192.00
2018-06-02T08:31:11.353Z,4636.00
2018-06-02T08:32:11.537Z,4128.00
2018-06-02T08:33:11.716Z,3620.00
2018-06-02T08:34:11.929Z,3268.00
2018-06-02T08:35:12.098Z,3036.00
2018-06-02T08:36:12.276Z,2852.00
2018-06-02T08:37:12.456Z,2696.00
2018-06-02T08:38:12.615Z,2584.00
2018-06-02T08:39:12.797Z,2344.00
2018-06-02T08:40:13.005Z,2216.00
2018-06-02T08:41:13.195Z,2140.00
2018-06-02T08:42:13.332Z,2140.00
2018-06-02T08:43:13.488Z,2052.00
2018-06-02T08:44:13.665Z,1976.00
2018-06-02T08:45:13.865Z,1956.00
2018-06-02T08:46:14.030Z,2008.00
2018-06-02T08:47:14.214Z,2088.00
2018-06-02T08:48:14.386Z,2176.00
2018-06-02T08:49:14.574Z,2316.00
2018-06-02T08:50:14.725Z,2460.00
2018-06-02T08:51:14.897Z,2596.00
2018-06-02T08:52:15.071Z,2772.00
2018-06-02T08:53:15.247Z,2876.00
2018-06-02T08:54:15.408Z,2928.00
2018-06-02T08:55:15.979Z,3020.00
2018-06-02T08:56:15.802Z,3112.00
2018-06-02T08:57:15.929Z,3228.00
2018-06-02T08:58:16.093Z,3332.00
2018-06-02T08:59:16.277Z,3456.00
2018-06-02T09:00:16.443Z,3596.00
2018-06-02T09:01:16.631Z,3828.00
2018-06-02T09:02:16.796Z,4044.00
2018-06-02T09:03:16.962Z,4612.00
2018-06-02T09:04:17.136Z,5620.00
2018-06-02T09:05:17.320Z,6100.00
2018-06-02T09:06:17.477Z,6672.00
2018-06-02T09:07:17.655Z,7236.00
2018-06-02T09:08:17.861Z,12000.00
2018-06-02T09:09:18.024Z,10516.00
2018-06-02T09:10:18.172Z,12524.00
2018-06-02T09:11:18.369Z,12868.00
2018-06-02T09:12:18.496Z,11200.00
2018-06-02T09:13:18.681Z,13952.00
2018-06-02T09:14:18.857Z,14248.00
2018-06-02T09:15:19.032Z,13748.00
2018-06-02T09:16:19.190Z,12460.00
2018-06-02T09:17:19.355Z,8632.00
2018-06-02T09:18:19.561Z,7900.00
2018-06-02T09:19:19.707Z,6936.00
2018-06-02T09:20:19.889Z,5660.00
2018-06-02T09:21:20.045Z,4756.00
2018-06-02T09:22:20.228Z,4080.00
2018-06-02T09:23:20.413Z,3548.00
2018-06-02T09:24:20.619Z,3156.00
2018-06-02T09:25:20.783Z,3148.00
2018-06-02T09:26:20.989Z,3196.00
2018-06-02T09:27:21.147Z,3312.00
2018-06-02T09:29:21.486Z,4304.00
2018-06-02T09:30:21.696Z,6800.00
2018-06-02T09:31:21.868Z,7736.00
2018-06-02T09:32:22.032Z,5892.00
2018-06-02T09:33:22.201Z,5164.00
2018-06-02T09:34:22.374Z,4508.00
2018-06-02T09:35:22.608Z,3924.00
2018-06-02T09:36:22.736Z,3492.00
2018-06-02T09:37:22.901Z,3228.00
2018-06-02T09:38:23.074Z,3216.00
2018-06-02T09:39:23.247Z,3392.00
2018-06-02T09:40:23.465Z,3740.00
2018-06-02T09:41:23.647Z,4440.00
2018-06-02T09:42:23.824Z,4324.00
2018-06-02T09:43:23.982Z,4668.00
2018-06-02T09:44:27.103Z,4972.00
2018-06-02T09:45:24.643Z,5276.00
2018-06-02T09:46:24.510Z,5364.00
2018-06-02T09:47:24.684Z,6044.00
2018-06-02T09:48:24.903Z,5668.00
2018-06-02T09:49:25.029Z,4868.00
2018-06-02T09:50:25.191Z,4436.00
2018-06-02T09:51:25.369Z,4096.00
2018-06-02T09:52:25.537Z,3848.00
2018-06-02T09:53:25.726Z,3660.00
2018-06-02T09:54:25.919Z,3516.00
2018-06-02T09:55:26.130Z,3316.00
2018-06-02T09:56:26.298Z,3240.00
2018-06-02T09:57:26.454Z,3376.00
2018-06-02T09:58:26.613Z,3580.00
2018-06-02T09:59:26.785Z,3720.00
2018-06-02T10:00:26.959Z,3848.00
2018-06-02T10:01:27.147Z,4172.00
2018-06-02T10:02:27.306Z,4448.00
2018-06-02T10:03:27.487Z,4716.00
2018-06-02T10:04:27.676Z,4856.00
2018-06-02T10:05:27.844Z,4840.00
2018-06-02T10:06:28.023Z,4768.00
2018-06-02T10:07:28.211Z,4664.00
2018-06-02T10:08:28.386Z,4512.00
2018-06-02T10:09:28.580Z,4336.00
2018-06-02T10:10:28.775Z,4264.00
2018-06-02T10:11:28.914Z,4224.00
2018-06-02T10:12:29.104Z,4280.00
2018-06-02T10:13:29.248Z,4420.00
2018-06-02T10:14:29.433Z,4536.00
2018-06-02T10:15:29.593Z,4540.00
2018-06-02T10:16:29.793Z,4500.00
2018-06-02T10:17:32.475Z,4452.00
2018-06-02T10:18:30.169Z,4408.00
2018-06-02T10:19:30.365Z,4304.00
2018-06-02T10:20:30.546Z,4256.00
2018-06-02T10:21:30.713Z,4216.00
2018-06-02T10:22:30.891Z,4052.00
2018-06-02T10:23:31.043Z,3816.00
2018-06-02T10:24:31.205Z,3620.00
2018-06-02T10:25:31.631Z,3500.00
2018-06-02T10:26:31.548Z,3536.00
2018-06-02T10:27:31.721Z,3516.00
2018-06-02T10:28:31.898Z,3484.00
2018-06-02T10:29:32.129Z,3460.00
2018-06-02T10:30:32.239Z,3388.00
2018-06-02T10:31:32.399Z,3388.00
2018-06-02T10:32:32.588Z,3480.00
2018-06-02T10:33:32.734Z,3640.00
2018-06-02T10:34:32.911Z,3812.00
2018-06-02T10:35:33.128Z,3896.00
2018-06-02T10:36:33.256Z,3964.00
2018-06-02T10:37:33.450Z,4124.00
2018-06-02T10:38:33.615Z,4292.00
2018-06-02T10:39:33.768Z,4408.00
2018-06-02T10:40:33.938Z,4544.00
2018-06-02T10:41:34.153Z,4584.00
2018-06-02T10:42:34.301Z,4640.00
2018-06-02T10:43:34.480Z,4724.00
2018-06-02T10:44:34.695Z,4768.00
2018-06-02T10:45:34.854Z,4832.00
2018-06-02T10:46:35.013Z,4848.00
2018-06-02T10:47:35.185Z,4784.00
2018-06-02T10:48:35.374Z,4640.00
2018-06-02T10:49:35.530Z,4476.00
2018-06-02T10:50:35.702Z,4352.00
2018-06-02T10:51:35.881Z,4260.00
2018-06-02T10:52:36.059Z,4252.00
2018-06-02T10:53:36.261Z,4288.00
2018-06-02T10:54:36.403Z,4352.00
2018-06-02T10:55:36.572Z,4420.00
2018-06-02T10:56:36.744Z,4480.00
2018-06-02T10:57:36.917Z,4500.00
2018-06-02T10:58:37.104Z,4484.00
2018-06-02T10:59:37.252Z,4480.00
2018-06-02T11:00:37.417Z,4504.00
2018-06-02T11:01:37.636Z,4568.00
2018-06-02T11:02:37.781Z,4580.00
2018-06-02T11:03:37.942Z,4476.00
2018-06-02T11:04:38.121Z,4500.00
2018-06-02T11:05:38.290Z,4512.00
2018-06-02T11:06:38.459Z,4520.00
2018-06-02T11:07:38.645Z,4620.00
2018-06-02T11:08:38.810Z,5048.00
2018-06-02T11:09:39.013Z,5436.00
2018-06-02T11:10:39.212Z,5712.00
2018-06-02T11:11:39.408Z,5732.00
2018-06-02T11:12:39.635Z,5728.00
2018-06-02T11:13:39.841Z,5756.00
2018-06-02T11:14:39.994Z,5684.00
2018-06-02T11:15:40.176Z,5500.00
2018-06-02T11:16:40.362Z,5292.00
2018-06-02T11:17:40.547Z,5144.00
2018-06-02T11:18:40.710Z,5128.00
2018-06-02T11:19:40.904Z,5100.00
2018-06-02T11:20:41.049Z,5000.00
2018-06-02T11:21:41.246Z,4848.00
2018-06-02T11:22:41.394Z,4812.00
2018-06-02T11:23:41.566Z,4816.00
2018-06-02T11:24:41.756Z,4760.00
2018-06-02T11:25:42.009Z,4696.00
2018-06-02T11:26:42.183Z,4704.00
2018-06-02T11:27:42.351Z,4828.00
2018-06-02T11:28:42.521Z,5024.00
2018-06-02T11:29:42.701Z,5064.00
2018-06-02T11:30:42.895Z,5052.00
2018-06-02T11:31:43.035Z,4972.00
2018-06-02T11:32:43.221Z,5032.00
2018-06-02T11:33:43.413Z,5116.00
2018-06-02T11:34:43.586Z,5156.00
2018-06-02T11:35:43.765Z,5196.00
2018-06-02T11:36:43.942Z,5368.00
2018-06-02T11:37:44.167Z,5488.00
2018-06-02T11:38:44.340Z,5528.00
2018-06-02T11:39:44.515Z,5620.00
2018-06-02T11:40:44.721Z,5604.00
2018-06-02T11:41:44.873Z,5468.00
2018-06-02T11:42:45.046Z,5348.00
2018-06-02T11:43:45.227Z,5300.00
2018-06-02T11:44:45.516Z,5248.00
2018-06-02T11:45:45.631Z,5180.00
2018-06-02T11:46:45.793Z,5032.00
2018-06-02T11:47:45.950Z,4848.00
2018-06-02T11:48:46.162Z,4568.00
2018-06-02T11:49:46.399Z,4276.00
2018-06-02T11:50:46.581Z,4040.00
2018-06-02T11:51:46.731Z,3832.00
2018-06-02T11:52:46.885Z,3616.00
2018-06-02T11:53:47.052Z,3500.00
2018-06-02T11:54:47.221Z,3384.00
2018-06-02T11:55:47.386Z,3284.00
2018-06-02T11:56:47.551Z,3204.00
2018-06-02T11:57:47.725Z,3092.00
2018-06-02T11:58:47.912Z,3008.00
2018-06-02T11:59:48.181Z,2896.00
2018-06-02T12:00:48.274Z,2800.00
2018-06-02T12:01:48.476Z,2704.00
2018-06-02T12:02:48.634Z,2648.00
2018-06-02T12:03:48.818Z,2604.00
2018-06-02T12:04:48.996Z,2556.00
2018-06-02T12:05:49.178Z,2480.00
2018-06-02T12:06:49.346Z,2412.00
2018-06-02T12:07:49.517Z,2328.00
2018-06-02T12:08:49.706Z,2188.00
2018-06-02T12:09:49.910Z,2084.00
2018-06-02T12:10:50.072Z,1956.00
2018-06-02T12:11:50.245Z,1868.00
2018-06-02T12:12:50.407Z,1784.00
2018-06-02T12:13:50.635Z,1660.00
2018-06-02T12:14:50.759Z,1588.00
2018-06-02T12:15:50.923Z,1556.00
2018-06-02T12:16:51.096Z,1464.00
2018-06-02T12:17:51.285Z,1376.00
2018-06-02T12:18:51.450Z,1268.00
2018-06-02T12:19:51.668Z,1180.00
2018-06-02T12:20:51.858Z,1124.00
2018-06-02T12:21:52.027Z,1156.00
2018-06-02T12:22:52.206Z,1224.00
2018-06-02T12:23:52.401Z,1268.00
2018-06-02T12:24:52.567Z,1244.00
2018-06-02T12:25:52.738Z,1200.00
2018-06-02T12:26:53.164Z,1184.00
2018-06-02T12:27:53.103Z,1236.00
2018-06-02T12:28:53.280Z,1348.00
2018-06-02T12:30:53.616Z,1604.00
2018-06-02T12:31:53.800Z,1756.00
2018-06-02T12:32:53.957Z,1896.00
2018-06-02T12:33:54.126Z,1972.00
2018-06-02T12:34:54.302Z,2016.00
2018-06-02T12:35:54.497Z,2080.00
2018-06-02T12:36:54.932Z,2152.00
2018-06-02T12:37:54.867Z,2204.00
2018-06-02T12:38:55.052Z,2236.00